Time;durP1;ratioP1;P1;durP2;ratioP2;P2;SDS_P1;SDS_P2;PMS_P1;PMS_P2;Temp;Humidity;BMP_temperature;BMP_pressure;BME280_temperature;BME280_humidity;BME280_pressure;Samples;Min_cycle;Max_cycle;Signal;HPM_P1;HPM_P2
2022/01/28 00:00:30;;;;;;;5.30;4.68;;;3.10;99.90;;;;;;5070846;28;20732;-75
2022/01/28 00:03:05;;;;;;;7.70;5.00;;;3.00;99.90;;;;;;5070048;28;20246;-75
2022/01/28 00:05:33;;;;;;;6.75;4.60;;;3.00;99.90;;;;;;5070057;28;20220;-75
2022/01/28 00:08:00;;;;;;;5.68;4.65;;;3.00;99.90;;;;;;5070126;28;20204;-76
2022/01/28 00:10:28;;;;;;;9.40;4.82;;;3.00;99.90;;;;;;5071629;28;20203;-75
2022/01/28 00:15:45;;;;;;;6.15;4.80;;;2.90;99.90;;;;;;5062561;28;20226;-75
2022/01/28 00:36:26;;;;;;;6.60;4.40;;;3.10;99.90;;;;;;5069825;28;20202;-76
2022/01/28 00:40:18;;;;;;;6.47;5.13;;;3.20;99.90;;;;;;5062180;28;20203;-75
2022/01/28 00:42:45;;;;;;;5.28;4.70;;;3.30;99.90;;;;;;5069247;28;20208;-76
2022/01/28 00:45:12;;;;;;;6.68;4.75;;;3.20;99.90;;;;;;5069269;28;20228;-76
2022/01/28 00:47:39;;;;;;;5.07;4.57;;;3.20;99.90;;;;;;5068973;28;20212;-76
2022/01/28 00:50:08;;;;;;;8.13;4.43;;;3.20;99.90;;;;;;5064449;28;20207;-76
2022/01/28 00:52:35;;;;;;;5.97;4.50;;;3.20;99.90;;;;;;5066499;28;20203;-76
2022/01/28 00:55:02;;;;;;;5.40;4.80;;;3.20;99.90;;;;;;5068467;28;20260;-76
2022/01/28 00:57:29;;;;;;;6.40;4.57;;;3.10;99.90;;;;;;5068615;28;20282;-76
2022/01/28 00:59:56;;;;;;;6.75;4.45;;;3.10;99.90;;;;;;5068496;28;20212;-76
2022/01/28 01:02:23;;;;;;;5.22;4.50;;;3.00;99.90;;;;;;5068217;28;20818;-76
2022/01/28 01:04:50;;;;;;;5.20;4.70;;;3.00;99.90;;;;;;5067820;28;20220;-76
2022/01/28 01:07:18;;;;;;;6.10;4.78;;;2.90;99.90;;;;;;5069131;28;20258;-76
2022/01/28 01:09:46;;;;;;;7.68;5.25;;;2.90;99.90;;;;;;5069812;28;20694;-76
2022/01/28 01:12:17;;;;;;;6.13;4.63;;;2.90;99.90;;;;;;5067580;28;20577;-76
2022/01/28 01:14:44;;;;;;;7.15;4.55;;;2.90;99.90;;;;;;5068717;28;20235;-76
2022/01/28 01:17:21;;;;;;;9.05;4.70;;;3.00;99.90;;;;;;5068467;28;20208;-76
2022/01/28 01:19:52;;;;;;;5.68;4.45;;;3.00;99.90;;;;;;5068430;28;20196;-76
2022/01/28 01:22:20;;;;;;;5.40;4.32;;;3.00;99.90;;;;;;5067627;28;20200;-77
2022/01/28 01:24:53;;;;;;;5.65;4.63;;;3.00;99.90;;;;;;5068406;28;20626;-76
2022/01/28 01:27:20;;;;;;;6.22;4.75;;;3.00;99.90;;;;;;5068255;28;20250;-76
2022/01/28 01:29:47;;;;;;;4.95;4.35;;;3.00;99.90;;;;;;5068507;28;20211;-76
2022/01/28 01:32:17;;;;;;;7.45;4.78;;;2.90;99.90;;;;;;5067880;28;20242;-77
2022/01/28 01:34:44;;;;;;;6.28;4.45;;;2.90;99.90;;;;;;5068226;28;20237;-76
2022/01/28 01:37:12;;;;;;;6.90;4.78;;;2.90;99.90;;;;;;5068445;28;20207;-76
2022/01/28 01:39:42;;;;;;;5.72;4.50;;;2.80;99.90;;;;;;5067857;28;20747;-76
2022/01/28 01:42:19;;;;;;;6.30;4.25;;;2.80;99.90;;;;;;5068364;28;20296;-76
2022/01/28 01:53:09;;;;;;;4.72;3.92;;;2.60;99.90;;;;;;5103716;22;20395;-90
2022/01/28 01:55:37;;;;;;;4.40;4.00;;;2.60;99.90;;;;;;5076234;28;20612;-90
2022/01/28 01:58:04;;;;;;;6.68;4.13;;;2.60;99.90;;;;;;5082834;22;20228;-75
2022/01/28 02:00:31;;;;;;;5.45;4.13;;;2.60;99.90;;;;;;5072989;28;20205;-75
2022/01/28 02:02:58;;;;;;;6.63;4.07;;;2.50;99.90;;;;;;5072477;28;20200;-76
2022/01/28 02:05:24;;;;;;;6.03;4.95;;;2.50;99.90;;;;;;5069195;28;20216;-76
2022/01/28 02:07:51;;;;;;;4.65;4.15;;;2.50;99.90;;;;;;5052974;28;20216;-76
2022/01/28 02:10:18;;;;;;;4.30;3.78;;;2.50;99.90;;;;;;5053580;28;20197;-77
2022/01/28 02:12:47;;;;;;;5.03;4.30;;;2.40;99.90;;;;;;5052133;28;20204;-76
2022/01/28 02:15:14;;;;;;;6.32;4.03;;;2.40;99.90;;;;;;5055621;28;20707;-76
2022/01/28 02:17:41;;;;;;;4.18;3.45;;;2.40;99.90;;;;;;5065035;28;20205;-76
2022/01/28 02:20:11;;;;;;;6.32;4.80;;;2.40;99.90;;;;;;5065970;28;20201;-76
2022/01/28 02:22:39;;;;;;;5.63;4.57;;;2.40;99.90;;;;;;5067026;28;20201;-76
2022/01/28 02:25:06;;;;;;;5.70;3.92;;;2.40;99.90;;;;;;5065029;28;20303;-76
2022/01/28 02:27:33;;;;;;;6.72;4.57;;;2.30;99.90;;;;;;5062654;28;20201;-76
2022/01/28 02:30:00;;;;;;;4.57;3.92;;;2.30;99.90;;;;;;5061096;28;20204;-76
2022/01/28 02:32:26;;;;;;;4.55;4.05;;;2.30;99.90;;;;;;5060525;28;20247;-76
2022/01/28 02:34:54;;;;;;;5.75;4.22;;;2.30;99.90;;;;;;5058031;28;20307;-77
2022/01/28 02:37:22;;;;;;;3.95;3.42;;;2.30;99.90;;;;;;5054628;28;20255;-77
2022/01/28 02:39:50;;;;;;;7.45;3.90;;;2.30;99.90;;;;;;5053844;28;20217;-77
2022/01/28 02:42:43;;;;;;;5.60;3.78;;;2.20;99.90;;;;;;5052555;28;20744;-76
2022/01/28 02:45:13;;;;;;;4.97;3.65;;;2.20;99.90;;;;;;5053666;28;20237;-77
2022/01/28 02:47:42;;;;;;;4.80;4.05;;;2.10;99.90;;;;;;5052630;28;20205;-77
2022/01/28 02:50:09;;;;;;;5.30;4.15;;;2.10;99.90;;;;;;5053797;28;20300;-77
2022/01/28 02:52:42;;;;;;;6.63;4.47;;;2.10;99.90;;;;;;5052480;28;20288;-77
2022/01/28 02:55:13;;;;;;;5.45;4.95;;;2.10;99.90;;;;;;5052377;28;20225;-77
2022/01/28 02:57:50;;;;;;;4.75;4.05;;;2.00;99.90;;;;;;5052622;28;20213;-77
2022/01/28 03:00:17;;;;;;;6.78;4.50;;;2.00;99.90;;;;;;5052409;28;20215;-77
2022/01/28 03:02:44;;;;;;;5.03;4.05;;;2.00;99.90;;;;;;5051980;28;20212;-77
2022/01/28 03:07:51;;;;;;;9.73;4.47;;;1.90;99.90;;;;;;5051599;28;20235;-77
2022/01/28 03:10:39;;;;;;;4.30;3.70;;;1.90;99.90;;;;;;5052383;28;20575;-77
2022/01/28 03:13:32;;;;;;;4.50;3.88;;;1.90;99.90;;;;;;5051346;28;20664;-77
2022/01/28 03:16:12;;;;;;;4.93;4.10;;;1.90;99.90;;;;;;5051980;28;20320;-76
2022/01/28 03:18:47;;;;;;;5.20;4.35;;;1.80;99.90;;;;;;5052082;28;20197;-77
2022/01/28 03:21:37;;;;;;;4.20;3.78;;;1.90;99.90;;;;;;5052672;28;20636;-77
2022/01/28 03:24:05;;;;;;;5.75;4.10;;;1.80;99.90;;;;;;5051970;28;20203;-77
2022/01/28 03:26:33;;;;;;;5.60;3.90;;;1.80;99.90;;;;;;5052542;28;20225;-77
2022/01/28 03:29:00;;;;;;;4.53;4.00;;;1.90;99.90;;;;;;5052740;28;20697;-77
2022/01/28 03:31:26;;;;;;;5.95;4.47;;;1.90;99.90;;;;;;5054684;28;20208;-77
2022/01/28 03:33:53;;;;;;;5.55;4.03;;;1.90;99.90;;;;;;5055536;28;20205;-77
2022/01/28 03:36:20;;;;;;;6.57;4.40;;;1.90;99.90;;;;;;5055855;28;20228;-77
2022/01/28 03:38:48;;;;;;;5.72;4.10;;;1.90;99.90;;;;;;5055964;28;20205;-77
2022/01/28 03:41:17;;;;;;;4.57;3.75;;;1.90;99.90;;;;;;5055933;28;20551;-77
2022/01/28 03:43:45;;;;;;;6.85;4.10;;;1.90;99.90;;;;;;5055500;28;20353;-77
2022/01/28 03:46:12;;;;;;;5.22;3.83;;;1.90;99.90;;;;;;5055978;28;20255;-77
2022/01/28 03:48:39;;;;;;;5.50;4.45;;;1.90;99.90;;;;;;5055627;28;20201;-77
2022/01/28 03:51:06;;;;;;;4.00;3.45;;;1.90;99.90;;;;;;5056457;28;20201;-77
2022/01/28 03:53:32;;;;;;;7.35;4.00;;;1.90;99.90;;;;;;5054521;28;20208;-77
2022/01/28 03:55:59;;;;;;;5.57;4.18;;;1.90;99.90;;;;;;5055990;28;20225;-77
2022/01/28 03:58:27;;;;;;;4.65;3.67;;;2.00;99.90;;;;;;5055548;28;20209;-77
2022/01/28 04:00:56;;;;;;;5.30;4.00;;;2.00;99.90;;;;;;5056638;28;20574;-77
2022/01/28 04:03:46;;;;;;;4.53;3.95;;;2.00;99.90;;;;;;5055529;28;20656;-77
2022/01/28 04:11:50;;;;;;;6.18;4.15;;;2.00;99.90;;;;;;5055968;28;20216;-77
2022/01/28 04:14:19;;;;;;;6.00;4.45;;;2.00;99.90;;;;;;5055422;28;20234;-77
2022/01/28 04:19:31;;;;;;;7.70;4.53;;;2.10;99.90;;;;;;5053430;28;20204;-77
2022/01/28 04:21:59;;;;;;;6.30;4.55;;;2.20;99.90;;;;;;5054073;28;20707;-77
2022/01/28 04:24:25;;;;;;;5.40;4.57;;;2.20;99.90;;;;;;5053410;28;20212;-77
2022/01/28 04:26:52;;;;;;;7.60;4.80;;;2.20;99.90;;;;;;5053343;28;20204;-78
2022/01/28 04:29:19;;;;;;;6.15;4.63;;;2.30;99.90;;;;;;5054385;28;20205;-77
2022/01/28 04:31:48;;;;;;;6.53;5.05;;;2.30;99.90;;;;;;5054455;28;20208;-77
2022/01/28 04:34:15;;;;;;;5.75;4.50;;;2.30;99.90;;;;;;5055391;28;20251;-77
2022/01/28 04:36:51;;;;;;;6.55;4.43;;;2.30;99.90;;;;;;5056067;28;20716;-77
2022/01/28 04:39:24;;;;;;;7.47;4.70;;;2.20;99.90;;;;;;5057574;28;20209;-78
2022/01/28 04:42:00;;;;;;;5.93;4.82;;;2.20;99.90;;;;;;5064190;28;20254;-78
2022/01/28 04:44:34;;;;;;;7.85;5.18;;;2.10;99.90;;;;;;5056308;28;20213;-77
2022/01/28 04:47:10;;;;;;;7.53;5.57;;;2.10;99.90;;;;;;5056636;28;20211;-78
2022/01/28 04:49:50;;;;;;;9.02;4.50;;;2.10;99.90;;;;;;5054288;28;20734;-79
2022/01/28 04:55:22;;;;;;;6.97;4.55;;;2.00;99.90;;;;;;5104752;27;20547;-76
2022/01/28 04:58:02;;;;;;;8.60;4.97;;;2.00;99.90;;;;;;5094267;28;20227;-76
2022/01/28 05:00:40;;;;;;;6.85;5.53;;;2.00;99.90;;;;;;5095378;28;20286;-76
2022/01/28 05:03:32;;;;;;;7.78;5.05;;;2.00;99.90;;;;;;5093655;28;20195;-76
2022/01/28 05:15:07;;;;;;;8.13;4.50;;;1.90;99.90;;;;;;5090405;28;20712;-76
2022/01/28 05:23:31;;;;;;;8.70;4.32;;;1.90;99.90;;;;;;5091127;28;20281;-75
2022/01/28 05:28:55;;;;;;;6.85;4.32;;;1.80;99.90;;;;;;5028388;28;20201;-75
2022/01/28 05:31:22;;;;;;;7.18;5.05;;;1.80;99.90;;;;;;5055423;28;20329;-75
2022/01/28 05:33:49;;;;;;;6.00;4.30;;;1.80;99.90;;;;;;5064042;28;20231;-75
2022/01/28 05:36:16;;;;;;;7.75;4.80;;;1.80;99.90;;;;;;5066126;28;20224;-73
2022/01/28 05:38:43;;;;;;;8.40;5.00;;;1.80;99.90;;;;;;5065983;28;20207;-75
2022/01/28 05:41:09;;;;;;;5.32;4.82;;;1.80;99.90;;;;;;5067392;28;20223;-75
2022/01/28 05:43:36;;;;;;;7.88;5.00;;;1.80;99.90;;;;;;5066357;28;20220;-74
2022/01/28 05:46:05;;;;;;;6.35;4.70;;;1.80;99.90;;;;;;5067025;28;20224;-75
2022/01/28 05:48:31;;;;;;;6.00;4.55;;;1.80;99.90;;;;;;5066631;28;20223;-75
2022/01/28 05:50:58;;;;;;;9.40;4.40;;;1.70;99.90;;;;;;5067244;28;20205;-75
2022/01/28 05:53:25;;;;;;;5.90;5.00;;;1.70;99.90;;;;;;5066043;28;20624;-75
2022/01/28 05:55:52;;;;;;;7.40;4.85;;;1.70;99.90;;;;;;5066565;28;20227;-76
2022/01/28 05:58:19;;;;;;;5.90;5.13;;;1.60;99.90;;;;;;5066981;28;20203;-76
2022/01/28 06:00:45;;;;;;;6.10;5.05;;;1.60;99.90;;;;;;5066257;28;20210;-74
2022/01/28 06:03:14;;;;;;;7.35;4.72;;;1.60;99.90;;;;;;5066122;28;20683;-76
2022/01/28 06:05:40;;;;;;;7.35;4.97;;;1.50;99.90;;;;;;5057606;28;20225;-76
2022/01/28 06:08:07;;;;;;;6.63;4.93;;;1.50;99.90;;;;;;5053436;28;20205;-76
2022/01/28 06:10:34;;;;;;;7.65;5.10;;;1.50;99.90;;;;;;5053314;28;20872;-76
2022/01/28 06:13:00;;;;;;;6.43;4.88;;;1.50;99.90;;;;;;5052622;28;20208;-75
2022/01/28 06:15:27;;;;;;;5.85;5.05;;;1.50;99.90;;;;;;5053085;28;20221;-75
2022/01/28 06:17:54;;;;;;;8.25;4.90;;;1.40;99.90;;;;;;5059860;28;20688;-75
2022/01/28 06:20:22;;;;;;;7.10;5.63;;;1.40;99.90;;;;;;5073271;28;20193;-74
2022/01/28 06:22:49;;;;;;;6.40;4.68;;;1.40;99.90;;;;;;5071768;28;20196;-74
2022/01/28 06:25:16;;;;;;;7.75;4.65;;;1.40;99.90;;;;;;5062596;28;20247;-74
2022/01/28 06:27:43;;;;;;;8.10;4.50;;;1.40;99.90;;;;;;5065376;28;20212;-74
2022/01/28 06:30:11;;;;;;;6.70;4.93;;;1.30;99.90;;;;;;5052714;28;20201;-74
2022/01/28 06:32:38;;;;;;;9.85;5.22;;;1.30;99.90;;;;;;5052418;28;20215;-76
2022/01/28 06:35:08;;;;;;;5.47;4.82;;;1.40;99.90;;;;;;5052662;28;20229;-76
2022/01/28 06:37:36;;;;;;;6.10;4.95;;;1.40;99.90;;;;;;5052988;28;20237;-75
2022/01/28 06:40:05;;;;;;;7.05;4.95;;;1.40;99.90;;;;;;5052829;28;20573;-76
2022/01/28 06:42:32;;;;;;;8.57;5.00;;;1.40;99.90;;;;;;5052176;28;20212;-75
2022/01/28 06:44:58;;;;;;;8.90;5.40;;;1.40;99.90;;;;;;5052759;28;20221;-75
2022/01/28 06:47:26;;;;;;;8.43;5.40;;;1.40;99.90;;;;;;5052233;28;20211;-76
2022/01/28 06:49:52;;;;;;;6.70;4.75;;;1.40;99.90;;;;;;5052951;28;20201;-76
2022/01/28 06:52:20;;;;;;;7.88;5.43;;;1.50;99.90;;;;;;5051753;28;20197;-75
2022/01/28 06:54:48;;;;;;;6.50;4.60;;;1.50;99.90;;;;;;5052487;28;20224;-76
2022/01/28 06:57:14;;;;;;;7.22;5.32;;;1.50;99.90;;;;;;5052067;28;20205;-75
2022/01/28 06:59:41;;;;;;;6.55;4.93;;;1.50;99.90;;;;;;5052638;28;20205;-75
2022/01/28 07:02:08;;;;;;;8.75;4.70;;;1.50;99.90;;;;;;5052102;28;20578;-74
2022/01/28 07:04:35;;;;;;;5.80;4.60;;;1.50;99.90;;;;;;5051831;28;20301;-75
2022/01/28 07:07:02;;;;;;;7.70;4.85;;;1.50;99.90;;;;;;5052607;28;20205;-75
2022/01/28 07:09:28;;;;;;;8.07;5.85;;;1.50;99.90;;;;;;5051867;28;20201;-75
2022/01/28 07:11:56;;;;;;;8.77;5.10;;;1.60;99.90;;;;;;5052271;28;20672;-75
2022/01/28 07:14:23;;;;;;;6.30;4.88;;;1.60;99.90;;;;;;5051020;28;20224;-75
2022/01/28 07:16:50;;;;;;;6.90;5.32;;;1.60;99.90;;;;;;5051004;28;20204;-74
2022/01/28 07:19:17;;;;;;;11.23;5.35;;;1.70;99.90;;;;;;5068384;28;20208;-75
2022/01/28 07:21:43;;;;;;;7.30;5.35;;;1.70;99.90;;;;;;5071797;28;20205;-74
2022/01/28 07:24:10;;;;;;;8.77;5.95;;;1.80;99.90;;;;;;5071453;28;20197;-75
2022/01/28 07:26:37;;;;;;;7.93;5.68;;;1.80;99.90;;;;;;5071558;28;20668;-75
2022/01/28 07:29:07;;;;;;;8.27;5.07;;;1.90;99.90;;;;;;5071978;28;20679;-74
2022/01/28 07:31:35;;;;;;;9.13;6.30;;;1.90;99.90;;;;;;5071787;28;20204;-75
2022/01/28 07:34:02;;;;;;;9.82;6.15;;;2.10;99.90;;;;;;5071512;28;20783;-75
2022/01/28 07:36:29;;;;;;;11.02;5.68;;;2.10;99.90;;;;;;5071077;28;20220;-74
2022/01/28 07:38:55;;;;;;;9.57;7.13;;;2.20;99.90;;;;;;5071711;28;20207;-75
2022/01/28 07:41:22;;;;;;;7.57;5.22;;;2.20;99.90;;;;;;5071374;28;20736;-75
2022/01/28 07:43:49;;;;;;;6.80;5.30;;;2.20;99.90;;;;;;5071277;28;20207;-75
2022/01/28 07:46:17;;;;;;;6.78;5.88;;;2.30;99.90;;;;;;5073109;28;20703;-75
2022/01/28 07:48:43;;;;;;;7.25;5.82;;;2.30;99.90;;;;;;5077263;28;20207;-74
2022/01/28 07:51:10;;;;;;;8.30;5.10;;;2.50;99.90;;;;;;5086510;28;20538;-74
2022/01/28 07:53:37;;;;;;;6.95;4.90;;;2.50;99.90;;;;;;5082315;22;20220;-78
2022/01/28 07:56:04;;;;;;;7.63;4.80;;;2.60;99.90;;;;;;5078666;28;20609;-78
2022/01/28 07:58:31;;;;;;;9.73;5.72;;;2.60;99.90;;;;;;5080070;28;20208;-78
2022/01/28 08:00:58;;;;;;;8.15;5.63;;;2.70;99.90;;;;;;5079922;28;20577;-80
2022/01/28 08:03:26;;;;;;;7.30;5.50;;;2.70;99.90;;;;;;5078951;28;20574;-81
2022/01/28 08:05:53;;;;;;;7.00;5.72;;;2.70;99.90;;;;;;5080036;28;20220;-80
2022/01/28 08:08:21;;;;;;;6.93;5.55;;;2.70;99.90;;;;;;5083661;28;20200;-80
2022/01/28 08:10:48;;;;;;;7.13;5.25;;;2.80;99.90;;;;;;5084556;28;20767;-80
2022/01/28 08:13:15;;;;;;;6.65;5.25;;;3.20;99.90;;;;;;5083674;28;20215;-80
2022/01/28 08:15:42;;;;;;;8.02;5.18;;;3.70;99.90;;;;;;5083810;28;20228;-80
2022/01/28 08:18:10;;;;;;;8.63;6.20;;;4.20;99.90;;;;;;5080786;28;20215;-80
2022/01/28 08:20:39;;;;;;;6.82;4.93;;;4.40;99.90;;;;;;5072354;28;20210;-79
2022/01/28 08:23:06;;;;;;;7.43;4.63;;;4.30;99.90;;;;;;5064888;28;20661;-79
2022/01/28 08:25:34;;;;;;;8.00;4.75;;;4.10;99.90;;;;;;5071135;28;20246;-80
2022/01/28 08:28:02;;;;;;;7.78;4.75;;;3.90;99.90;;;;;;5073245;28;20211;-79
2022/01/28 08:30:29;;;;;;;6.78;4.80;;;3.80;99.90;;;;;;5073521;28;20206;-80
2022/01/28 08:32:57;;;;;;;7.07;5.20;;;3.80;99.90;;;;;;5075527;28;20246;-80
2022/01/28 08:35:29;;;;;;;8.00;5.00;;;4.00;99.90;;;;;;5076674;28;20228;-80
2022/01/28 08:37:59;;;;;;;6.60;4.90;;;4.30;99.90;;;;;;5074464;28;20215;-80
2022/01/28 08:40:27;;;;;;;7.72;5.32;;;4.50;99.90;;;;;;5075794;28;20725;-80
2022/01/28 08:42:53;;;;;;;8.10;5.05;;;5.20;99.90;;;;;;5076214;28;20227;-81
2022/01/28 08:45:23;;;;;;;6.85;4.20;;;6.30;99.90;;;;;;5081743;28;20212;-81
2022/01/28 08:47:50;;;;;;;7.38;5.18;;;6.50;99.90;;;;;;5061611;28;20688;-81
2022/01/28 08:50:17;;;;;;;6.43;4.40;;;6.90;99.90;;;;;;5062352;28;20259;-81
2022/01/28 08:52:46;;;;;;;6.07;4.03;;;6.80;99.90;;;;;;5061455;28;20209;-81
2022/01/28 08:55:15;;;;;;;6.63;4.05;;;6.30;99.90;;;;;;5062105;28;20224;-81
2022/01/28 08:57:43;;;;;;;5.40;3.83;;;5.70;99.90;;;;;;5061832;28;20200;-80
2022/01/28 09:00:12;;;;;;;7.75;4.65;;;5.20;99.90;;;;;;5060476;28;20273;-80
2022/01/28 09:02:39;;;;;;;5.70;4.40;;;5.00;99.90;;;;;;5061363;28;20205;-80
2022/01/28 09:05:06;;;;;;;4.75;3.63;;;4.80;99.90;;;;;;5060878;28;20439;-80
2022/01/28 09:07:33;;;;;;;6.40;4.50;;;4.80;99.90;;;;;;5062082;28;20201;-80
2022/01/28 09:10:06;;;;;;;7.75;5.15;;;4.80;99.90;;;;;;5061811;28;20209;-80
2022/01/28 09:12:39;;;;;;;6.53;4.28;;;4.70;99.90;;;;;;5060970;28;20658;-80
2022/01/28 09:15:07;;;;;;;5.45;3.92;;;4.60;99.90;;;;;;5061186;28;21513;-80
2022/01/28 09:17:35;;;;;;;5.32;4.13;;;4.50;99.90;;;;;;5061454;28;20204;-80
2022/01/28 09:20:02;;;;;;;8.20;4.45;;;4.50;99.90;;;;;;5061716;28;20300;-80
2022/01/28 09:22:29;;;;;;;5.93;4.47;;;4.40;99.90;;;;;;5060733;28;20205;-81
2022/01/28 09:24:56;;;;;;;9.30;4.85;;;4.50;99.90;;;;;;5061921;28;20221;-81
2022/01/28 09:27:23;;;;;;;4.63;4.22;;;4.50;99.90;;;;;;5061307;28;20229;-80
2022/01/28 09:29:51;;;;;;;7.35;4.05;;;4.50;99.90;;;;;;5060794;28;20224;-80
2022/01/28 09:32:18;;;;;;;5.53;4.25;;;4.50;99.90;;;;;;5061465;28;20232;-81
2022/01/28 09:34:45;;;;;;;4.93;4.20;;;4.50;99.90;;;;;;5060665;28;20299;-81
2022/01/28 09:37:13;;;;;;;7.10;4.90;;;4.50;99.90;;;;;;5060345;28;20205;-81
2022/01/28 09:39:44;;;;;;;6.35;4.43;;;4.50;99.90;;;;;;5061851;28;20212;-81
2022/01/28 09:42:15;;;;;;;6.68;3.95;;;4.60;99.90;;;;;;5064694;28;20296;-81
2022/01/28 09:44:43;;;;;;;6.70;4.25;;;4.60;99.90;;;;;;5064844;28;20622;-81
2022/01/28 09:47:12;;;;;;;5.00;3.85;;;4.80;99.90;;;;;;5056797;28;20205;-78
2022/01/28 09:49:40;;;;;;;4.30;3.90;;;4.90;99.90;;;;;;5056742;28;20220;-78
2022/01/28 09:52:08;;;;;;;5.10;3.38;;;5.10;99.90;;;;;;5062998;28;20216;-79
2022/01/28 09:54:36;;;;;;;5.43;4.03;;;5.20;99.90;;;;;;5064750;28;20225;-80
2022/01/28 09:57:03;;;;;;;4.55;3.50;;;5.60;99.90;;;;;;5064392;28;20206;-80
2022/01/28 09:59:30;;;;;;;5.65;3.33;;;6.10;99.90;;;;;;5064185;28;20201;-80
2022/01/28 10:01:57;;;;;;;6.20;3.53;;;6.60;99.90;;;;;;5064361;28;20212;-81
2022/01/28 10:04:26;;;;;;;8.25;3.67;;;6.80;99.90;;;;;;5064169;28;20213;-80
2022/01/28 10:06:54;;;;;;;5.10;3.30;;;6.80;99.90;;;;;;5062997;28;20209;-80
2022/01/28 10:09:23;;;;;;;9.93;4.15;;;6.60;99.90;;;;;;5064045;28;20205;-80
2022/01/28 10:11:54;;;;;;;6.90;3.60;;;6.50;99.90;;;;;;5062875;28;20224;-80
2022/01/28 10:14:23;;;;;;;4.78;2.78;;;6.40;99.90;;;;;;5063317;28;20209;-81
2022/01/28 10:16:56;;;;;;;4.72;3.60;;;6.20;99.90;;;;;;5062826;28;20537;-80
2022/01/28 10:19:27;;;;;;;4.97;3.25;;;6.10;99.90;;;;;;5063253;28;20223;-80
2022/01/28 10:21:55;;;;;;;4.63;2.60;;;6.10;99.90;;;;;;5062822;28;20212;-80
2022/01/28 10:24:23;;;;;;;4.97;2.70;;;6.10;99.90;;;;;;5055891;28;20208;-79
2022/01/28 10:26:51;;;;;;;6.15;2.85;;;6.10;99.90;;;;;;5054438;28;20240;-82
2022/01/28 10:29:20;;;;;;;4.78;2.63;;;6.00;99.90;;;;;;5072405;28;20211;-81
2022/01/28 10:31:50;;;;;;;7.63;3.20;;;6.00;99.90;;;;;;5089420;28;20204;-82
2022/01/28 10:34:21;;;;;;;3.33;2.72;;;6.20;99.90;;;;;;5089355;28;20313;-83
2022/01/28 10:36:50;;;;;;;3.90;2.25;;;6.40;99.90;;;;;;5077101;28;20207;-82
2022/01/28 10:39:20;;;;;;;8.40;3.00;;;6.70;99.90;;;;;;5077245;28;20703;-82
2022/01/28 10:41:52;;;;;;;5.55;2.53;;;7.20;99.90;;;;;;5078693;28;20212;-82
2022/01/28 10:44:19;;;;;;;4.40;2.47;;;8.00;99.90;;;;;;5077902;28;20561;-81
2022/01/28 10:46:53;;;;;;;6.65;2.33;;;9.40;99.90;;;;;;5072335;28;20208;-82
2022/01/28 10:49:19;;;;;;;6.82;3.08;;;11.10;99.90;;;;;;5077646;28;20200;-83
2022/01/28 10:51:49;;;;;;;5.22;2.80;;;11.20;99.30;;;;;;5079559;28;20204;-83
2022/01/28 10:54:18;;;;;;;2.97;2.10;;;10.90;98.70;;;;;;5078756;28;20209;-82
2022/01/28 10:56:50;;;;;;;3.78;2.30;;;10.60;99.40;;;;;;5079075;28;20235;-82
2022/01/28 10:59:22;;;;;;;5.65;2.80;;;11.40;99.00;;;;;;5079916;28;20197;-80
2022/01/28 11:01:55;;;;;;;4.35;2.15;;;12.80;97.10;;;;;;5078354;28;20211;-81
2022/01/28 11:04:24;;;;;;;8.98;2.30;;;13.90;95.00;;;;;;5076524;28;21095;-82
2022/01/28 11:07:06;;;;;;;9.13;2.22;;;13.90;93.90;;;;;;5076639;28;20224;-84
2022/01/28 11:09:33;;;;;;;2.75;1.98;;;13.30;95.10;;;;;;5080126;28;20211;-83
2022/01/28 11:12:01;;;;;;;4.05;2.00;;;12.90;94.10;;;;;;5080369;28;20200;-83
2022/01/28 11:14:28;;;;;;;2.03;1.70;;;12.10;94.70;;;;;;5079835;28;20230;-83
2022/01/28 11:16:56;;;;;;;4.53;1.95;;;11.20;94.80;;;;;;5084559;28;20224;-83
2022/01/28 11:19:25;;;;;;;4.47;1.95;;;10.50;95.70;;;;;;5081204;28;20273;-82
2022/01/28 11:22:08;;;;;;;4.65;1.73;;;10.00;95.80;;;;;;5079624;28;20240;-83
2022/01/28 11:25:01;;;;;;;4.78;2.17;;;9.30;97.50;;;;;;5078894;28;20715;-82
2022/01/28 11:27:32;;;;;;;2.08;1.85;;;8.80;98.20;;;;;;5079826;28;20242;-82
2022/01/28 11:30:18;;;;;;;6.60;2.50;;;8.70;98.70;;;;;;5080580;28;20196;-82
2022/01/28 11:33:04;;;;;;;5.70;2.10;;;9.20;98.10;;;;;;5079658;28;20978;-82
2022/01/28 11:35:37;;;;;;;3.25;2.10;;;10.30;96.80;;;;;;5078382;28;20228;-82
2022/01/28 11:38:44;;;;;;;3.20;2.40;;;10.80;96.10;;;;;;5078328;28;20220;-82
2022/01/28 11:41:15;;;;;;;7.05;2.70;;;10.50;96.10;;;;;;5079276;28;20211;-81
2022/01/28 11:43:51;;;;;;;2.75;2.08;;;10.10;97.00;;;;;;5078496;28;20742;-83
2022/01/28 11:46:23;;;;;;;4.85;2.13;;;9.70;97.70;;;;;;5080757;28;20599;-83
2022/01/28 11:49:21;;;;;;;4.13;2.25;;;9.20;97.70;;;;;;5079684;28;20571;-82
2022/01/28 11:51:48;;;;;;;10.13;2.72;;;8.40;98.30;;;;;;5080129;28;20200;-82
2022/01/28 11:54:20;;;;;;;3.80;2.13;;;8.10;98.40;;;;;;5079631;28;20223;-82
2022/01/28 11:57:13;;;;;;;2.95;2.30;;;7.90;99.00;;;;;;5080495;28;20220;-82
2022/01/28 11:59:40;;;;;;;4.00;2.30;;;7.80;99.50;;;;;;5062396;28;20213;-82
2022/01/28 12:02:10;;;;;;;3.05;2.30;;;7.70;99.40;;;;;;5080601;28;20215;-81
2022/01/28 12:04:37;;;;;;;4.90;2.30;;;7.50;99.80;;;;;;5082087;28;20274;-82
2022/01/28 12:07:07;;;;;;;4.50;2.10;;;7.30;99.90;;;;;;5078967;28;20208;-82
2022/01/28 12:09:37;;;;;;;3.75;2.20;;;7.10;99.90;;;;;;5081527;28;20234;-82
2022/01/28 12:12:08;;;;;;;3.50;1.85;;;6.90;99.90;;;;;;5081744;28;20287;-82
2022/01/28 12:14:58;;;;;;;3.92;2.33;;;6.70;99.90;;;;;;5081187;28;20216;-82
2022/01/28 12:17:38;;;;;;;3.45;2.17;;;6.50;99.90;;;;;;5081595;28;20231;-82
2022/01/28 12:20:37;;;;;;;2.50;2.30;;;6.30;99.90;;;;;;5081095;28;20211;-81
2022/01/28 12:23:24;;;;;;;8.10;2.20;;;6.40;99.90;;;;;;5080686;28;20204;-82
2022/01/28 12:25:56;;;;;;;2.65;1.75;;;7.00;99.90;;;;;;5078926;28;20337;-82
2022/01/28 12:28:24;;;;;;;3.75;3.05;;;8.50;99.20;;;;;;5072085;28;20204;-81
2022/01/28 12:30:58;;;;;;;3.35;2.10;;;9.00;97.90;;;;;;5076466;28;20219;-82
2022/01/28 12:33:27;;;;;;;7.03;2.30;;;9.00;97.80;;;;;;5075395;28;20200;-82
2022/01/28 12:35:56;;;;;;;3.35;2.50;;;8.50;98.40;;;;;;5075884;28;20228;-82
2022/01/28 12:38:26;;;;;;;3.35;2.67;;;8.60;98.50;;;;;;5076541;28;20207;-82
2022/01/28 12:40:57;;;;;;;5.00;2.30;;;8.70;98.70;;;;;;5076152;28;20207;-82
2022/01/28 12:43:25;;;;;;;3.72;2.10;;;9.40;98.40;;;;;;5074647;28;20211;-83
2022/01/28 12:45:59;;;;;;;2.58;2.00;;;10.10;97.00;;;;;;5076424;28;20220;-83
2022/01/28 12:48:27;;;;;;;3.28;2.10;;;10.00;96.30;;;;;;5076832;28;20206;-83
2022/01/28 12:50:55;;;;;;;4.10;2.15;;;9.40;97.20;;;;;;5075822;28;20196;-82
2022/01/28 12:53:30;;;;;;;6.68;2.40;;;8.80;97.80;;;;;;5072911;28;20212;-79
2022/01/28 12:55:59;;;;;;;5.10;2.25;;;8.40;99.00;;;;;;5073665;28;20301;-78
2022/01/28 12:58:34;;;;;;;5.10;2.40;;;8.40;99.00;;;;;;5072930;28;20200;-77
2022/01/28 13:01:09;;;;;;;3.28;2.30;;;8.50;98.90;;;;;;5070794;28;20215;-77
2022/01/28 13:03:45;;;;;;;3.47;2.33;;;8.40;99.30;;;;;;5073150;28;20203;-80
2022/01/28 13:06:23;;;;;;;3.80;2.10;;;8.30;98.90;;;;;;5072709;28;20216;-81
2022/01/28 13:08:51;;;;;;;4.25;2.40;;;8.00;98.80;;;;;;5070674;28;20231;-79
2022/01/28 13:11:19;;;;;;;6.47;2.72;;;7.70;99.60;;;;;;5074333;28;20200;-81
2022/01/28 13:13:51;;;;;;;2.75;2.30;;;7.70;99.50;;;;;;5072705;28;20212;-81
2022/01/28 13:16:30;;;;;;;5.07;2.70;;;8.10;99.50;;;;;;5077543;28;20223;-80
2022/01/28 13:18:57;;;;;;;5.03;2.85;;;8.50;99.30;;;;;;5078546;28;20224;-81
2022/01/28 13:21:24;;;;;;;5.82;2.88;;;8.90;98.60;;;;;;5078055;28;20585;-80
2022/01/28 13:24:06;;;;;;;3.78;2.67;;;8.90;98.30;;;;;;5078915;28;20200;-80
2022/01/28 13:26:35;;;;;;;5.72;2.60;;;8.60;98.70;;;;;;5078212;28;20231;-80
2022/01/28 13:29:06;;;;;;;4.47;2.17;;;8.90;99.40;;;;;;5079175;28;20668;-80
2022/01/28 13:31:33;;;;;;;7.60;2.80;;;9.60;97.80;;;;;;5078459;28;20200;-80
2022/01/28 13:34:02;;;;;;;3.22;2.60;;;9.80;97.80;;;;;;5078344;28;20397;-80
2022/01/28 13:36:44;;;;;;;3.88;2.65;;;10.10;97.70;;;;;;5078111;28;20659;-80
2022/01/28 13:39:15;;;;;;;6.38;2.70;;;10.60;96.80;;;;;;5089629;28;20265;-80
2022/01/28 13:41:45;;;;;;;3.45;3.15;;;10.30;96.40;;;;;;5082880;28;20204;-81
2022/01/28 13:44:23;;;;;;;6.60;3.10;;;9.50;97.40;;;;;;5076314;28;20239;-81
2022/01/28 13:46:58;;;;;;;5.70;3.15;;;8.70;98.40;;;;;;5077654;28;20204;-80
2022/01/28 13:49:30;;;;;;;7.55;3.72;;;8.00;99.10;;;;;;5077822;28;20290;-81
2022/01/28 13:52:08;;;;;;;7.88;3.70;;;7.50;99.90;;;;;;5077666;28;20208;-81
2022/01/28 13:54:35;;;;;;;5.55;3.88;;;7.20;99.90;;;;;;5144265;22;20231;-76
2022/01/28 13:57:05;;;;;;;6.82;3.50;;;7.20;99.90;;;;;;5081664;28;20216;-76
2022/01/28 13:59:34;;;;;;;5.07;3.47;;;7.10;99.90;;;;;;5092783;28;20252;-76
2022/01/28 14:02:02;;;;;;;5.05;4.05;;;7.10;99.90;;;;;;5092261;28;20196;-74
2022/01/28 14:04:35;;;;;;;7.63;4.25;;;7.00;99.90;;;;;;5092087;28;20200;-74
2022/01/28 14:07:14;;;;;;;7.00;3.83;;;7.00;99.90;;;;;;5091480;28;20759;-75
2022/01/28 14:09:50;;;;;;;6.45;3.83;;;6.90;99.90;;;;;;5092766;28;20716;-75
2022/01/28 14:12:36;;;;;;;4.97;3.83;;;6.80;99.90;;;;;;5092011;28;20207;-75